sensor_id;sensor_type;location;lat;lon;timestamp;P1;durP1;ratioP1;P2;durP2;ratioP2
28822;SDS011;15961;54.678;9.110;2023-09-08T00:01:11;27.02;;;14.85;;
28822;SDS011;15961;54.678;9.110;2023-09-08T00:03:36;30.38;;;15.15;;
28822;SDS011;15961;54.678;9.110;2023-09-08T00:06:01;30.40;;;17.27;;
28822;SDS011;15961;54.678;9.110;2023-09-08T00:08:27;28.80;;;14.57;;
28822;SDS011;15961;54.678;9.110;2023-09-08T00:10:52;35.70;;;17.38;;
28822;SDS011;15961;54.678;9.110;2023-09-08T00:13:17;29.50;;;14.30;;
28822;SDS011;15961;54.678;9.110;2023-09-08T00:15:42;31.08;;;15.15;;
28822;SDS011;15961;54.678;9.110;2023-09-08T00:18:08;27.67;;;14.43;;
28822;SDS011;15961;54.678;9.110;2023-09-08T00:20:33;28.30;;;13.73;;
28822;SDS011;15961;54.678;9.110;2023-09-08T00:22:59;31.15;;;14.68;;
28822;SDS011;15961;54.678;9.110;2023-09-08T00:25:25;30.45;;;15.05;;
28822;SDS011;15961;54.678;9.110;2023-09-08T00:27:50;29.20;;;15.40;;
28822;SDS011;15961;54.678;9.110;2023-09-08T00:30:15;26.27;;;13.98;;
28822;SDS011;15961;54.678;9.110;2023-09-08T00:32:40;24.52;;;13.48;;
28822;SDS011;15961;54.678;9.110;2023-09-08T00:35:06;25.60;;;14.13;;
28822;SDS011;15961;54.678;9.110;2023-09-08T00:37:33;32.78;;;15.80;;
28822;SDS011;15961;54.678;9.110;2023-09-08T00:39:58;27.52;;;13.38;;
28822;SDS011;15961;54.678;9.110;2023-09-08T00:42:23;28.98;;;16.25;;
28822;SDS011;15961;54.678;9.110;2023-09-08T00:44:48;27.77;;;14.82;;
28822;SDS011;15961;54.678;9.110;2023-09-08T00:47:14;33.38;;;16.63;;
28822;SDS011;15961;54.678;9.110;2023-09-08T00:49:40;28.20;;;15.90;;
28822;SDS011;15961;54.678;9.110;2023-09-08T00:52:05;26.80;;;13.20;;
28822;SDS011;15961;54.678;9.110;2023-09-08T00:54:30;27.83;;;14.48;;
28822;SDS011;15961;54.678;9.110;2023-09-08T00:56:56;33.17;;;15.85;;
28822;SDS011;15961;54.678;9.110;2023-09-08T00:59:24;30.27;;;15.75;;
28822;SDS011;15961;54.678;9.110;2023-09-08T01:01:50;30.02;;;15.73;;
28822;SDS011;15961;54.678;9.110;2023-09-08T01:04:15;27.73;;;14.75;;
28822;SDS011;15961;54.678;9.110;2023-09-08T01:06:41;28.40;;;15.07;;
28822;SDS011;15961;54.678;9.110;2023-09-08T01:09:06;29.20;;;16.27;;
28822;SDS011;15961;54.678;9.110;2023-09-08T01:11:32;35.47;;;15.77;;
28822;SDS011;15961;54.678;9.110;2023-09-08T01:13:57;27.08;;;15.65;;
28822;SDS011;15961;54.678;9.110;2023-09-08T01:16:22;31.50;;;16.13;;
28822;SDS011;15961;54.678;9.110;2023-09-08T01:18:48;26.00;;;13.18;;
28822;SDS011;15961;54.678;9.110;2023-09-08T01:26:51;20.67;;;11.20;;
28822;SDS011;15961;54.678;9.110;2023-09-08T01:29:18;27.75;;;13.98;;
28822;SDS011;15961;54.678;9.110;2023-09-08T01:31:44;27.25;;;14.13;;
28822;SDS011;15961;54.678;9.110;2023-09-08T01:34:09;28.80;;;14.52;;
28822;SDS011;15961;54.678;9.110;2023-09-08T01:36:35;31.67;;;14.27;;
28822;SDS011;15961;54.678;9.110;2023-09-08T01:39:03;24.30;;;12.43;;
28822;SDS011;15961;54.678;9.110;2023-09-08T01:41:29;23.95;;;12.43;;
28822;SDS011;15961;54.678;9.110;2023-09-08T01:43:56;21.30;;;11.65;;
28822;SDS011;15961;54.678;9.110;2023-09-08T01:46:22;36.83;;;16.77;;
28822;SDS011;15961;54.678;9.110;2023-09-08T01:48:48;25.58;;;12.05;;
28822;SDS011;15961;54.678;9.110;2023-09-08T01:51:13;29.65;;;13.27;;
28822;SDS011;15961;54.678;9.110;2023-09-08T01:53:38;22.60;;;12.45;;
28822;SDS011;15961;54.678;9.110;2023-09-08T01:56:03;19.13;;;11.38;;
28822;SDS011;15961;54.678;9.110;2023-09-08T01:58:29;18.42;;;10.18;;
28822;SDS011;15961;54.678;9.110;2023-09-08T02:00:55;19.80;;;10.52;;
28822;SDS011;15961;54.678;9.110;2023-09-08T02:03:25;18.40;;;9.40;;
28822;SDS011;15961;54.678;9.110;2023-09-08T02:05:50;21.98;;;10.73;;
28822;SDS011;15961;54.678;9.110;2023-09-08T02:08:15;22.67;;;11.77;;
28822;SDS011;15961;54.678;9.110;2023-09-08T02:10:41;24.27;;;11.68;;
28822;SDS011;15961;54.678;9.110;2023-09-08T02:13:06;17.48;;;10.63;;
28822;SDS011;15961;54.678;9.110;2023-09-08T02:15:32;21.33;;;10.35;;
28822;SDS011;15961;54.678;9.110;2023-09-08T02:18:00;19.02;;;10.95;;
28822;SDS011;15961;54.678;9.110;2023-09-08T02:20:25;23.67;;;11.60;;
28822;SDS011;15961;54.678;9.110;2023-09-08T02:22:54;29.17;;;11.60;;
28822;SDS011;15961;54.678;9.110;2023-09-08T02:25:19;22.80;;;11.35;;
28822;SDS011;15961;54.678;9.110;2023-09-08T02:27:45;19.35;;;11.00;;
28822;SDS011;15961;54.678;9.110;2023-09-08T02:30:10;21.65;;;12.02;;
28822;SDS011;15961;54.678;9.110;2023-09-08T02:32:35;27.90;;;14.40;;
28822;SDS011;15961;54.678;9.110;2023-09-08T02:35:01;24.10;;;12.27;;
28822;SDS011;15961;54.678;9.110;2023-09-08T02:37:26;25.48;;;13.25;;
28822;SDS011;15961;54.678;9.110;2023-09-08T02:39:51;21.67;;;13.15;;
28822;SDS011;15961;54.678;9.110;2023-09-08T02:42:16;23.95;;;12.98;;
28822;SDS011;15961;54.678;9.110;2023-09-08T02:44:42;31.45;;;14.68;;
28822;SDS011;15961;54.678;9.110;2023-09-08T02:47:08;30.73;;;15.30;;
28822;SDS011;15961;54.678;9.110;2023-09-08T02:49:33;25.52;;;14.45;;
28822;SDS011;15961;54.678;9.110;2023-09-08T02:51:58;30.45;;;17.63;;
28822;SDS011;15961;54.678;9.110;2023-09-08T02:54:24;30.98;;;16.33;;
28822;SDS011;15961;54.678;9.110;2023-09-08T02:56:49;33.25;;;17.13;;
28822;SDS011;15961;54.678;9.110;2023-09-08T02:59:14;30.40;;;16.45;;
28822;SDS011;15961;54.678;9.110;2023-09-08T03:01:40;31.52;;;15.13;;
28822;SDS011;15961;54.678;9.110;2023-09-08T03:04:05;28.25;;;15.85;;
28822;SDS011;15961;54.678;9.110;2023-09-08T03:06:30;32.80;;;16.92;;
28822;SDS011;15961;54.678;9.110;2023-09-08T03:08:55;32.78;;;15.93;;
28822;SDS011;15961;54.678;9.110;2023-09-08T03:11:23;31.23;;;17.50;;
28822;SDS011;15961;54.678;9.110;2023-09-08T03:13:48;30.95;;;16.42;;
28822;SDS011;15961;54.678;9.110;2023-09-08T03:16:14;30.55;;;15.98;;
28822;SDS011;15961;54.678;9.110;2023-09-08T03:18:39;29.88;;;16.17;;
28822;SDS011;15961;54.678;9.110;2023-09-08T03:21:05;29.02;;;15.73;;
28822;SDS011;15961;54.678;9.110;2023-09-08T03:23:37;36.97;;;16.67;;
28822;SDS011;15961;54.678;9.110;2023-09-08T03:26:03;29.00;;;15.50;;
28822;SDS011;15961;54.678;9.110;2023-09-08T03:28:28;30.58;;;15.95;;
28822;SDS011;15961;54.678;9.110;2023-09-08T03:30:53;24.92;;;14.57;;
28822;SDS011;15961;54.678;9.110;2023-09-08T03:33:19;25.20;;;13.93;;
28822;SDS011;15961;54.678;9.110;2023-09-08T03:35:44;30.10;;;15.05;;
28822;SDS011;15961;54.678;9.110;2023-09-08T03:38:09;34.63;;;18.00;;
28822;SDS011;15961;54.678;9.110;2023-09-08T03:40:35;30.80;;;15.68;;
28822;SDS011;15961;54.678;9.110;2023-09-08T03:43:00;29.27;;;14.80;;
28822;SDS011;15961;54.678;9.110;2023-09-08T03:45:25;27.42;;;14.60;;
28822;SDS011;15961;54.678;9.110;2023-09-08T03:47:50;27.80;;;15.98;;
28822;SDS011;15961;54.678;9.110;2023-09-08T03:50:16;29.58;;;15.73;;
28822;SDS011;15961;54.678;9.110;2023-09-08T03:52:41;27.70;;;15.50;;
28822;SDS011;15961;54.678;9.110;2023-09-08T03:55:06;26.75;;;14.25;;
28822;SDS011;15961;54.678;9.110;2023-09-08T03:57:32;28.83;;;16.15;;
28822;SDS011;15961;54.678;9.110;2023-09-08T03:59:57;24.38;;;13.55;;
28822;SDS011;15961;54.678;9.110;2023-09-08T04:02:22;22.60;;;12.80;;
28822;SDS011;15961;54.678;9.110;2023-09-08T04:04:47;27.25;;;15.20;;
28822;SDS011;15961;54.678;9.110;2023-09-08T04:07:13;25.13;;;14.48;;
28822;SDS011;15961;54.678;9.110;2023-09-08T04:09:38;25.38;;;13.90;;
28822;SDS011;15961;54.678;9.110;2023-09-08T04:12:03;19.42;;;12.50;;
28822;SDS011;15961;54.678;9.110;2023-09-08T04:14:29;22.05;;;13.23;;
28822;SDS011;15961;54.678;9.110;2023-09-08T04:16:55;23.75;;;13.52;;
28822;SDS011;15961;54.678;9.110;2023-09-08T04:19:20;25.60;;;15.52;;
28822;SDS011;15961;54.678;9.110;2023-09-08T04:21:45;21.55;;;12.73;;
28822;SDS011;15961;54.678;9.110;2023-09-08T04:24:11;27.58;;;15.73;;
28822;SDS011;15961;54.678;9.110;2023-09-08T04:26:36;27.83;;;16.45;;
28822;SDS011;15961;54.678;9.110;2023-09-08T04:29:02;24.48;;;13.57;;
28822;SDS011;15961;54.678;9.110;2023-09-08T04:31:27;30.30;;;15.98;;
28822;SDS011;15961;54.678;9.110;2023-09-08T04:33:53;27.55;;;14.75;;
28822;SDS011;15961;54.678;9.110;2023-09-08T04:36:18;24.83;;;15.73;;
28822;SDS011;15961;54.678;9.110;2023-09-08T04:38:44;23.23;;;15.43;;
28822;SDS011;15961;54.678;9.110;2023-09-08T04:41:09;20.40;;;14.38;;
28822;SDS011;15961;54.678;9.110;2023-09-08T04:43:35;23.23;;;14.10;;
28822;SDS011;15961;54.678;9.110;2023-09-08T04:46:02;23.55;;;14.13;;
28822;SDS011;15961;54.678;9.110;2023-09-08T04:48:28;26.58;;;14.85;;
28822;SDS011;15961;54.678;9.110;2023-09-08T04:50:54;23.55;;;12.45;;
28822;SDS011;15961;54.678;9.110;2023-09-08T04:53:19;20.80;;;12.90;;
28822;SDS011;15961;54.678;9.110;2023-09-08T04:55:44;21.27;;;11.27;;
28822;SDS011;15961;54.678;9.110;2023-09-08T04:58:10;21.60;;;13.75;;
28822;SDS011;15961;54.678;9.110;2023-09-08T05:00:37;26.55;;;13.73;;
28822;SDS011;15961;54.678;9.110;2023-09-08T05:03:03;26.15;;;13.32;;
28822;SDS011;15961;54.678;9.110;2023-09-08T05:05:29;23.77;;;13.30;;
28822;SDS011;15961;54.678;9.110;2023-09-08T05:07:54;22.15;;;14.25;;
28822;SDS011;15961;54.678;9.110;2023-09-08T05:10:21;23.88;;;14.00;;
28822;SDS011;15961;54.678;9.110;2023-09-08T05:12:47;24.65;;;12.88;;
28822;SDS011;15961;54.678;9.110;2023-09-08T05:15:12;25.58;;;15.48;;
28822;SDS011;15961;54.678;9.110;2023-09-08T05:17:40;22.52;;;14.50;;
28822;SDS011;15961;54.678;9.110;2023-09-08T05:20:06;22.85;;;13.23;;
28822;SDS011;15961;54.678;9.110;2023-09-08T05:22:31;21.15;;;12.82;;
28822;SDS011;15961;54.678;9.110;2023-09-08T05:24:57;24.05;;;12.75;;
28822;SDS011;15961;54.678;9.110;2023-09-08T05:27:22;20.63;;;12.35;;
28822;SDS011;15961;54.678;9.110;2023-09-08T05:29:47;18.13;;;11.10;;
28822;SDS011;15961;54.678;9.110;2023-09-08T05:32:12;20.17;;;11.65;;
28822;SDS011;15961;54.678;9.110;2023-09-08T05:34:38;21.35;;;12.00;;
28822;SDS011;15961;54.678;9.110;2023-09-08T05:37:04;22.70;;;13.30;;
28822;SDS011;15961;54.678;9.110;2023-09-08T05:39:29;26.08;;;13.45;;
28822;SDS011;15961;54.678;9.110;2023-09-08T05:41:54;28.45;;;14.35;;
28822;SDS011;15961;54.678;9.110;2023-09-08T05:44:20;25.08;;;15.13;;
28822;SDS011;15961;54.678;9.110;2023-09-08T05:46:45;33.03;;;19.23;;
28822;SDS011;15961;54.678;9.110;2023-09-08T05:49:10;30.92;;;16.23;;
28822;SDS011;15961;54.678;9.110;2023-09-08T05:51:35;30.05;;;17.05;;
28822;SDS011;15961;54.678;9.110;2023-09-08T05:54:01;27.65;;;16.77;;
28822;SDS011;15961;54.678;9.110;2023-09-08T05:56:29;28.83;;;16.23;;
28822;SDS011;15961;54.678;9.110;2023-09-08T05:58:56;29.38;;;16.60;;
28822;SDS011;15961;54.678;9.110;2023-09-08T06:01:21;27.50;;;15.55;;
28822;SDS011;15961;54.678;9.110;2023-09-08T06:03:47;25.50;;;14.65;;
28822;SDS011;15961;54.678;9.110;2023-09-08T06:06:12;27.50;;;16.55;;
28822;SDS011;15961;54.678;9.110;2023-09-08T06:08:38;28.88;;;16.38;;
28822;SDS011;15961;54.678;9.110;2023-09-08T06:11:03;28.98;;;16.02;;
28822;SDS011;15961;54.678;9.110;2023-09-08T06:13:28;29.35;;;17.15;;
28822;SDS011;15961;54.678;9.110;2023-09-08T06:15:53;27.38;;;15.95;;
28822;SDS011;15961;54.678;9.110;2023-09-08T06:18:19;27.25;;;15.15;;
28822;SDS011;15961;54.678;9.110;2023-09-08T06:20:45;32.20;;;16.27;;
28822;SDS011;15961;54.678;9.110;2023-09-08T06:23:10;29.38;;;16.15;;
28822;SDS011;15961;54.678;9.110;2023-09-08T06:25:36;32.63;;;19.27;;
28822;SDS011;15961;54.678;9.110;2023-09-08T06:28:01;30.95;;;16.70;;
28822;SDS011;15961;54.678;9.110;2023-09-08T06:30:26;30.95;;;16.75;;
28822;SDS011;15961;54.678;9.110;2023-09-08T06:32:52;34.80;;;20.35;;
28822;SDS011;15961;54.678;9.110;2023-09-08T06:35:17;32.05;;;20.77;;
28822;SDS011;15961;54.678;9.110;2023-09-08T06:37:42;29.75;;;16.83;;
28822;SDS011;15961;54.678;9.110;2023-09-08T06:40:08;32.97;;;19.60;;
28822;SDS011;15961;54.678;9.110;2023-09-08T06:42:33;32.40;;;19.35;;
28822;SDS011;15961;54.678;9.110;2023-09-08T06:44:58;25.23;;;15.38;;
28822;SDS011;15961;54.678;9.110;2023-09-08T06:47:24;30.65;;;18.60;;
28822;SDS011;15961;54.678;9.110;2023-09-08T06:49:49;31.10;;;17.42;;
28822;SDS011;15961;54.678;9.110;2023-09-08T06:52:14;25.85;;;17.55;;
28822;SDS011;15961;54.678;9.110;2023-09-08T06:54:40;30.25;;;16.98;;
28822;SDS011;15961;54.678;9.110;2023-09-08T06:59:40;28.27;;;17.17;;
28822;SDS011;15961;54.678;9.110;2023-09-08T07:02:07;25.85;;;15.90;;
28822;SDS011;15961;54.678;9.110;2023-09-08T07:04:32;26.40;;;16.95;;
28822;SDS011;15961;54.678;9.110;2023-09-08T07:07:01;25.45;;;16.50;;
28822;SDS011;15961;54.678;9.110;2023-09-08T07:09:31;24.05;;;13.48;;
28822;SDS011;15961;54.678;9.110;2023-09-08T07:11:57;25.15;;;15.05;;
28822;SDS011;15961;54.678;9.110;2023-09-08T07:14:22;25.40;;;15.30;;
28822;SDS011;15961;54.678;9.110;2023-09-08T07:16:48;27.27;;;13.77;;
28822;SDS011;15961;54.678;9.110;2023-09-08T07:19:14;19.92;;;12.43;;
28822;SDS011;15961;54.678;9.110;2023-09-08T07:21:39;22.77;;;13.43;;
28822;SDS011;15961;54.678;9.110;2023-09-08T07:24:04;25.45;;;13.20;;
28822;SDS011;15961;54.678;9.110;2023-09-08T07:26:30;21.83;;;12.43;;
28822;SDS011;15961;54.678;9.110;2023-09-08T07:28:55;22.83;;;12.90;;
28822;SDS011;15961;54.678;9.110;2023-09-08T07:31:21;18.48;;;11.68;;
28822;SDS011;15961;54.678;9.110;2023-09-08T07:33:46;19.40;;;11.82;;
28822;SDS011;15961;54.678;9.110;2023-09-08T07:36:11;19.92;;;13.48;;
28822;SDS011;15961;54.678;9.110;2023-09-08T07:38:38;15.32;;;10.63;;
28822;SDS011;15961;54.678;9.110;2023-09-08T07:41:03;18.92;;;12.68;;
28822;SDS011;15961;54.678;9.110;2023-09-08T07:43:29;16.77;;;10.90;;
28822;SDS011;15961;54.678;9.110;2023-09-08T07:45:55;17.08;;;10.90;;
28822;SDS011;15961;54.678;9.110;2023-09-08T07:48:20;15.85;;;10.15;;
28822;SDS011;15961;54.678;9.110;2023-09-08T07:50:45;13.45;;;8.95;;
28822;SDS011;15961;54.678;9.110;2023-09-08T07:53:10;16.55;;;9.85;;
28822;SDS011;15961;54.678;9.110;2023-09-08T07:55:36;16.23;;;9.55;;
28822;SDS011;15961;54.678;9.110;2023-09-08T07:58:01;13.80;;;9.57;;
28822;SDS011;15961;54.678;9.110;2023-09-08T08:00:28;15.95;;;9.68;;
28822;SDS011;15961;54.678;9.110;2023-09-08T08:02:54;17.00;;;9.93;;
28822;SDS011;15961;54.678;9.110;2023-09-08T08:05:20;15.88;;;9.82;;
28822;SDS011;15961;54.678;9.110;2023-09-08T08:07:45;14.30;;;9.20;;
28822;SDS011;15961;54.678;9.110;2023-09-08T08:10:11;12.73;;;9.00;;
28822;SDS011;15961;54.678;9.110;2023-09-08T08:12:37;14.85;;;9.50;;
28822;SDS011;15961;54.678;9.110;2023-09-08T08:15:03;16.33;;;9.07;;
28822;SDS011;15961;54.678;9.110;2023-09-08T08:17:29;12.95;;;9.07;;
28822;SDS011;15961;54.678;9.110;2023-09-08T08:19:55;16.00;;;9.05;;
28822;SDS011;15961;54.678;9.110;2023-09-08T08:22:23;14.50;;;10.32;;
28822;SDS011;15961;54.678;9.110;2023-09-08T08:24:48;14.88;;;8.60;;
28822;SDS011;15961;54.678;9.110;2023-09-08T08:27:14;13.60;;;8.45;;
28822;SDS011;15961;54.678;9.110;2023-09-08T08:29:39;12.07;;;8.15;;
28822;SDS011;15961;54.678;9.110;2023-09-08T08:32:05;13.95;;;8.73;;
28822;SDS011;15961;54.678;9.110;2023-09-08T08:34:30;13.93;;;7.95;;
28822;SDS011;15961;54.678;9.110;2023-09-08T08:36:55;12.90;;;8.93;;
28822;SDS011;15961;54.678;9.110;2023-09-08T08:39:21;12.52;;;8.35;;
28822;SDS011;15961;54.678;9.110;2023-09-08T08:41:46;11.38;;;7.68;;
28822;SDS011;15961;54.678;9.110;2023-09-08T08:44:11;10.48;;;7.45;;
28822;SDS011;15961;54.678;9.110;2023-09-08T08:46:37;10.45;;;7.47;;
28822;SDS011;15961;54.678;9.110;2023-09-08T08:49:03;10.45;;;7.82;;
28822;SDS011;15961;54.678;9.110;2023-09-08T08:51:32;11.98;;;8.50;;
28822;SDS011;15961;54.678;9.110;2023-09-08T08:53:57;10.18;;;7.28;;
28822;SDS011;15961;54.678;9.110;2023-09-08T08:56:23;14.43;;;8.90;;
28822;SDS011;15961;54.678;9.110;2023-09-08T08:58:49;12.95;;;7.25;;
28822;SDS011;15961;54.678;9.110;2023-09-08T09:01:17;14.70;;;7.97;;
28822;SDS011;15961;54.678;9.110;2023-09-08T09:03:45;11.50;;;7.07;;
28822;SDS011;15961;54.678;9.110;2023-09-08T09:06:13;11.60;;;7.43;;
28822;SDS011;15961;54.678;9.110;2023-09-08T09:08:38;10.77;;;7.60;;
28822;SDS011;15961;54.678;9.110;2023-09-08T09:11:04;11.55;;;7.82;;
28822;SDS011;15961;54.678;9.110;2023-09-08T09:13:30;12.75;;;7.63;;
28822;SDS011;15961;54.678;9.110;2023-09-08T09:15:59;11.65;;;8.27;;
28822;SDS011;15961;54.678;9.110;2023-09-08T09:18:25;10.65;;;7.13;;
28822;SDS011;15961;54.678;9.110;2023-09-08T09:20:54;14.13;;;7.80;;
28822;SDS011;15961;54.678;9.110;2023-09-08T09:23:27;17.10;;;7.97;;
28822;SDS011;15961;54.678;9.110;2023-09-08T09:25:56;15.75;;;8.48;;
28822;SDS011;15961;54.678;9.110;2023-09-08T09:28:22;10.77;;;7.40;;
28822;SDS011;15961;54.678;9.110;2023-09-08T09:30:48;11.38;;;7.18;;
28822;SDS011;15961;54.678;9.110;2023-09-08T09:33:16;13.85;;;7.25;;
28822;SDS011;15961;54.678;9.110;2023-09-08T09:35:45;11.13;;;6.97;;
28822;SDS011;15961;54.678;9.110;2023-09-08T09:38:14;10.73;;;6.78;;
28822;SDS011;15961;54.678;9.110;2023-09-08T09:40:40;10.73;;;7.00;;
28822;SDS011;15961;54.678;9.110;2023-09-08T09:43:06;13.80;;;7.18;;
28822;SDS011;15961;54.678;9.110;2023-09-08T09:45:33;13.00;;;7.88;;
28822;SDS011;15961;54.678;9.110;2023-09-08T09:47:58;12.30;;;7.88;;
28822;SDS011;15961;54.678;9.110;2023-09-08T09:50:28;11.00;;;7.75;;
28822;SDS011;15961;54.678;9.110;2023-09-08T09:52:58;10.88;;;6.95;;
28822;SDS011;15961;54.678;9.110;2023-09-08T09:55:27;14.68;;;7.40;;
28822;SDS011;15961;54.678;9.110;2023-09-08T09:57:57;13.23;;;7.70;;
28822;SDS011;15961;54.678;9.110;2023-09-08T10:00:26;11.68;;;6.53;;
28822;SDS011;15961;54.678;9.110;2023-09-08T10:02:53;11.95;;;7.85;;
28822;SDS011;15961;54.678;9.110;2023-09-08T10:05:19;13.43;;;7.03;;
28822;SDS011;15961;54.678;9.110;2023-09-08T10:07:45;11.00;;;7.43;;
28822;SDS011;15961;54.678;9.110;2023-09-08T10:10:13;9.38;;;6.93;;
28822;SDS011;15961;54.678;9.110;2023-09-08T10:12:38;11.80;;;7.40;;
28822;SDS011;15961;54.678;9.110;2023-09-08T10:15:04;10.07;;;7.00;;
28822;SDS011;15961;54.678;9.110;2023-09-08T10:17:30;13.70;;;8.38;;
28822;SDS011;15961;54.678;9.110;2023-09-08T10:19:57;13.48;;;7.68;;
28822;SDS011;15961;54.678;9.110;2023-09-08T10:22:25;11.48;;;8.23;;
28822;SDS011;15961;54.678;9.110;2023-09-08T10:24:54;13.30;;;6.90;;
28822;SDS011;15961;54.678;9.110;2023-09-08T10:27:21;13.38;;;7.80;;
28822;SDS011;15961;54.678;9.110;2023-09-08T10:29:48;14.90;;;7.55;;
28822;SDS011;15961;54.678;9.110;2023-09-08T10:32:14;10.48;;;7.68;;
28822;SDS011;15961;54.678;9.110;2023-09-08T10:34:40;9.18;;;6.78;;
28822;SDS011;15961;54.678;9.110;2023-09-08T10:37:40;11.48;;;8.55;;
28822;SDS011;15961;54.678;9.110;2023-09-08T10:42:42;13.63;;;7.68;;
28822;SDS011;15961;54.678;9.110;2023-09-08T10:45:15;11.70;;;8.13;;
28822;SDS011;15961;54.678;9.110;2023-09-08T10:50:16;14.27;;;8.25;;
28822;SDS011;15961;54.678;9.110;2023-09-08T10:52:42;12.07;;;6.93;;
28822;SDS011;15961;54.678;9.110;2023-09-08T10:55:08;11.00;;;7.85;;
28822;SDS011;15961;54.678;9.110;2023-09-08T10:57:33;10.32;;;7.82;;
28822;SDS011;15961;54.678;9.110;2023-09-08T11:00:00;12.05;;;7.53;;
28822;SDS011;15961;54.678;9.110;2023-09-08T11:05:12;9.93;;;6.75;;
28822;SDS011;15961;54.678;9.110;2023-09-08T11:07:39;8.77;;;7.38;;
28822;SDS011;15961;54.678;9.110;2023-09-08T11:10:06;11.73;;;6.72;;
28822;SDS011;15961;54.678;9.110;2023-09-08T11:12:32;8.85;;;6.65;;
28822;SDS011;15961;54.678;9.110;2023-09-08T11:14:57;10.48;;;7.22;;
28822;SDS011;15961;54.678;9.110;2023-09-08T11:17:26;10.23;;;6.85;;
28822;SDS011;15961;54.678;9.110;2023-09-08T11:19:53;10.32;;;7.30;;
28822;SDS011;15961;54.678;9.110;2023-09-08T11:22:21;11.65;;;6.85;;
28822;SDS011;15961;54.678;9.110;2023-09-08T11:24:48;11.90;;;7.60;;
28822;SDS011;15961;54.678;9.110;2023-09-08T11:27:14;11.20;;;6.75;;
28822;SDS011;15961;54.678;9.110;2023-09-08T11:29:39;11.05;;;7.63;;
28822;SDS011;15961;54.678;9.110;2023-09-08T11:32:07;12.10;;;7.22;;
28822;SDS011;15961;54.678;9.110;2023-09-08T11:34:34;11.70;;;6.15;;
28822;SDS011;15961;54.678;9.110;2023-09-08T11:36:59;10.20;;;6.43;;
28822;SDS011;15961;54.678;9.110;2023-09-08T11:39:25;8.75;;;6.82;;
28822;SDS011;15961;54.678;9.110;2023-09-08T11:41:53;8.20;;;6.70;;
28822;SDS011;15961;54.678;9.110;2023-09-08T11:44:18;11.63;;;7.85;;
28822;SDS011;15961;54.678;9.110;2023-09-08T11:46:45;8.57;;;6.22;;
28822;SDS011;15961;54.678;9.110;2023-09-08T11:49:11;9.02;;;6.50;;
28822;SDS011;15961;54.678;9.110;2023-09-08T11:51:37;10.02;;;7.00;;
28822;SDS011;15961;54.678;9.110;2023-09-08T11:54:03;9.88;;;5.90;;
28822;SDS011;15961;54.678;9.110;2023-09-08T11:56:28;9.48;;;6.25;;
28822;SDS011;15961;54.678;9.110;2023-09-08T11:58:53;10.00;;;6.65;;
28822;SDS011;15961;54.678;9.110;2023-09-08T12:01:19;11.25;;;6.70;;
28822;SDS011;15961;54.678;9.110;2023-09-08T12:03:54;12.43;;;7.03;;
28822;SDS011;15961;54.678;9.110;2023-09-08T12:06:23;10.55;;;7.20;;
28822;SDS011;15961;54.678;9.110;2023-09-08T12:08:52;8.40;;;6.50;;
28822;SDS011;15961;54.678;9.110;2023-09-08T12:11:18;8.73;;;5.60;;
28822;SDS011;15961;54.678;9.110;2023-09-08T12:13:43;13.55;;;7.05;;
28822;SDS011;15961;54.678;9.110;2023-09-08T12:16:21;10.15;;;5.57;;
28822;SDS011;15961;54.678;9.110;2023-09-08T12:18:49;12.00;;;6.53;;
28822;SDS011;15961;54.678;9.110;2023-09-08T12:21:15;9.52;;;6.25;;
28822;SDS011;15961;54.678;9.110;2023-09-08T12:23:47;8.25;;;5.70;;
28822;SDS011;15961;54.678;9.110;2023-09-08T12:26:17;6.90;;;5.57;;
28822;SDS011;15961;54.678;9.110;2023-09-08T12:28:42;8.88;;;6.15;;
28822;SDS011;15961;54.678;9.110;2023-09-08T12:31:08;8.77;;;6.30;;
28822;SDS011;15961;54.678;9.110;2023-09-08T12:33:34;11.10;;;6.50;;
28822;SDS011;15961;54.678;9.110;2023-09-08T12:36:03;10.52;;;6.82;;
28822;SDS011;15961;54.678;9.110;2023-09-08T12:38:47;8.45;;;5.22;;
28822;SDS011;15961;54.678;9.110;2023-09-08T12:41:13;9.32;;;6.40;;
28822;SDS011;15961;54.678;9.110;2023-09-08T12:43:38;12.48;;;7.28;;
28822;SDS011;15961;54.678;9.110;2023-09-08T12:46:04;7.00;;;5.75;;
28822;SDS011;15961;54.678;9.110;2023-09-08T12:48:29;10.05;;;5.90;;
28822;SDS011;15961;54.678;9.110;2023-09-08T12:50:54;13.32;;;7.38;;
28822;SDS011;15961;54.678;9.110;2023-09-08T12:53:19;7.70;;;5.72;;
28822;SDS011;15961;54.678;9.110;2023-09-08T12:55:45;12.48;;;6.93;;
28822;SDS011;15961;54.678;9.110;2023-09-08T12:58:11;10.40;;;5.85;;
28822;SDS011;15961;54.678;9.110;2023-09-08T13:00:36;10.32;;;6.15;;
28822;SDS011;15961;54.678;9.110;2023-09-08T13:03:01;9.15;;;6.00;;
28822;SDS011;15961;54.678;9.110;2023-09-08T13:05:27;9.80;;;6.15;;
28822;SDS011;15961;54.678;9.110;2023-09-08T13:07:52;10.27;;;7.03;;
28822;SDS011;15961;54.678;9.110;2023-09-08T13:10:18;9.48;;;6.63;;
28822;SDS011;15961;54.678;9.110;2023-09-08T13:12:44;10.55;;;7.10;;
28822;SDS011;15961;54.678;9.110;2023-09-08T13:15:10;8.30;;;7.05;;
28822;SDS011;15961;54.678;9.110;2023-09-08T13:17:35;8.65;;;6.43;;
28822;SDS011;15961;54.678;9.110;2023-09-08T13:20:01;11.80;;;6.47;;
28822;SDS011;15961;54.678;9.110;2023-09-08T13:22:26;10.50;;;6.70;;
28822;SDS011;15961;54.678;9.110;2023-09-08T13:24:52;8.85;;;6.53;;
28822;SDS011;15961;54.678;9.110;2023-09-08T13:27:17;10.80;;;7.80;;
28822;SDS011;15961;54.678;9.110;2023-09-08T13:29:43;14.63;;;7.13;;
28822;SDS011;15961;54.678;9.110;2023-09-08T13:32:09;11.85;;;6.80;;
28822;SDS011;15961;54.678;9.110;2023-09-08T13:34:34;13.32;;;7.30;;
28822;SDS011;15961;54.678;9.110;2023-09-08T13:37:01;9.35;;;7.47;;
28822;SDS011;15961;54.678;9.110;2023-09-08T13:39:27;11.57;;;6.65;;
28822;SDS011;15961;54.678;9.110;2023-09-08T13:41:53;10.82;;;6.93;;
28822;SDS011;15961;54.678;9.110;2023-09-08T13:44:19;7.95;;;6.03;;
28822;SDS011;15961;54.678;9.110;2023-09-08T13:46:46;9.90;;;6.63;;
28822;SDS011;15961;54.678;9.110;2023-09-08T13:49:12;10.73;;;6.75;;
28822;SDS011;15961;54.678;9.110;2023-09-08T13:51:37;12.43;;;8.00;;
28822;SDS011;15961;54.678;9.110;2023-09-08T13:54:02;9.73;;;7.65;;
28822;SDS011;15961;54.678;9.110;2023-09-08T13:56:28;9.15;;;6.88;;
28822;SDS011;15961;54.678;9.110;2023-09-08T13:58:53;13.18;;;7.35;;
28822;SDS011;15961;54.678;9.110;2023-09-08T14:01:18;8.80;;;6.53;;
28822;SDS011;15961;54.678;9.110;2023-09-08T14:03:44;9.95;;;6.78;;
28822;SDS011;15961;54.678;9.110;2023-09-08T14:06:09;10.90;;;7.07;;
28822;SDS011;15961;54.678;9.110;2023-09-08T14:08:34;11.70;;;7.75;;
28822;SDS011;15961;54.678;9.110;2023-09-08T14:11:00;11.93;;;7.88;;
28822;SDS011;15961;54.678;9.110;2023-09-08T14:13:25;11.00;;;8.10;;
28822;SDS011;15961;54.678;9.110;2023-09-08T14:15:50;9.27;;;7.72;;
28822;SDS011;15961;54.678;9.110;2023-09-08T14:18:16;9.38;;;6.78;;
28822;SDS011;15961;54.678;9.110;2023-09-08T14:20:41;13.10;;;8.05;;
28822;SDS011;15961;54.678;9.110;2023-09-08T14:23:07;8.88;;;7.63;;
28822;SDS011;15961;54.678;9.110;2023-09-08T14:25:33;9.55;;;7.20;;
28822;SDS011;15961;54.678;9.110;2023-09-08T14:27:59;10.40;;;7.40;;
28822;SDS011;15961;54.678;9.110;2023-09-08T14:30:24;10.68;;;7.43;;
28822;SDS011;15961;54.678;9.110;2023-09-08T14:32:49;11.45;;;7.88;;
28822;SDS011;15961;54.678;9.110;2023-09-08T14:35:15;12.13;;;7.03;;
28822;SDS011;15961;54.678;9.110;2023-09-08T14:37:40;10.80;;;7.38;;